sensor_id;sensor_type;location;lat;lon;timestamp;temperature;humidity
57709;SHT35;42558;52.388;13.390;2022-08-24T00:01:24;18.13;79.31
57709;SHT35;42558;52.388;13.390;2022-08-24T00:03:53;18.16;79.26
57709;SHT35;42558;52.388;13.390;2022-08-24T00:06:25;18.15;78.92
57709;SHT35;42558;52.388;13.390;2022-08-24T00:08:55;18.13;78.83
57709;SHT35;42558;52.388;13.390;2022-08-24T00:11:24;18.10;78.67
57709;SHT35;42558;52.388;13.390;2022-08-24T00:13:52;18.01;79.18
57709;SHT35;42558;52.388;13.390;2022-08-24T00:16:20;17.95;79.84
57709;SHT35;42558;52.388;13.390;2022-08-24T00:18:47;17.98;79.66
57709;SHT35;42558;52.388;13.390;2022-08-24T00:21:15;17.99;79.24
57709;SHT35;42558;52.388;13.390;2022-08-24T00:23:44;17.98;79.14
57709;SHT35;42558;52.388;13.390;2022-08-24T00:26:12;17.98;79.07
57709;SHT35;42558;52.388;13.390;2022-08-24T00:28:39;17.96;78.79
57709;SHT35;42558;52.388;13.390;2022-08-24T00:31:07;17.89;78.99
57709;SHT35;42558;52.388;13.390;2022-08-24T00:33:34;17.84;79.60
57709;SHT35;42558;52.388;13.390;2022-08-24T00:36:01;17.82;79.66
57709;SHT35;42558;52.388;13.390;2022-08-24T00:38:30;17.79;79.79
57709;SHT35;42558;52.388;13.390;2022-08-24T00:41:00;17.79;79.81
57709;SHT35;42558;52.388;13.390;2022-08-24T00:43:29;17.78;79.57
57709;SHT35;42558;52.388;13.390;2022-08-24T00:46:17;17.75;79.52
57709;SHT35;42558;52.388;13.390;2022-08-24T00:48:51;17.74;79.69
57709;SHT35;42558;52.388;13.390;2022-08-24T00:51:29;17.75;79.39
57709;SHT35;42558;52.388;13.390;2022-08-24T00:54:09;17.70;79.38
57709;SHT35;42558;52.388;13.390;2022-08-24T00:56:41;17.64;79.76
57709;SHT35;42558;52.388;13.390;2022-08-24T00:59:18;17.60;79.87
57709;SHT35;42558;52.388;13.390;2022-08-24T01:01:49;17.53;80.70
57709;SHT35;42558;52.388;13.390;2022-08-24T01:04:34;17.39;81.60
57709;SHT35;42558;52.388;13.390;2022-08-24T01:07:08;17.34;81.77
57709;SHT35;42558;52.388;13.390;2022-08-24T01:09:35;17.39;81.33
57709;SHT35;42558;52.388;13.390;2022-08-24T01:12:03;17.45;80.90
57709;SHT35;42558;52.388;13.390;2022-08-24T01:14:32;17.46;80.27
57709;SHT35;42558;52.388;13.390;2022-08-24T01:16:59;17.43;80.49
57709;SHT35;42558;52.388;13.390;2022-08-24T01:19:46;17.45;80.65
57709;SHT35;42558;52.388;13.390;2022-08-24T01:22:24;17.49;80.28
57709;SHT35;42558;52.388;13.390;2022-08-24T01:25:01;17.49;79.90
57709;SHT35;42558;52.388;13.390;2022-08-24T01:27:30;17.47;80.13
57709;SHT35;42558;52.388;13.390;2022-08-24T01:29:59;17.49;79.89
57709;SHT35;42558;52.388;13.390;2022-08-24T01:32:32;17.45;79.84
57709;SHT35;42558;52.388;13.390;2022-08-24T01:34:59;17.38;80.26
57709;SHT35;42558;52.388;13.390;2022-08-24T01:37:26;17.35;80.62
57709;SHT35;42558;52.388;13.390;2022-08-24T01:39:55;17.35;80.47
57709;SHT35;42558;52.388;13.390;2022-08-24T01:42:25;17.38;80.41
57709;SHT35;42558;52.388;13.390;2022-08-24T01:44:54;17.36;79.92
57709;SHT35;42558;52.388;13.390;2022-08-24T01:47:21;17.21;80.32
57709;SHT35;42558;52.388;13.390;2022-08-24T01:49:48;17.12;81.07
57709;SHT35;42558;52.388;13.390;2022-08-24T01:52:19;17.10;81.46
57709;SHT35;42558;52.388;13.390;2022-08-24T01:55:00;17.11;81.48
57709;SHT35;42558;52.388;13.390;2022-08-24T01:57:27;17.11;80.79
57709;SHT35;42558;52.388;13.390;2022-08-24T01:59:54;17.09;80.62
57709;SHT35;42558;52.388;13.390;2022-08-24T02:02:27;17.07;80.66
57709;SHT35;42558;52.388;13.390;2022-08-24T02:04:57;17.02;81.06
57709;SHT35;42558;52.388;13.390;2022-08-24T02:07:24;17.01;81.39
57709;SHT35;42558;52.388;13.390;2022-08-24T02:09:52;16.99;81.53
57709;SHT35;42558;52.388;13.390;2022-08-24T02:12:19;17.03;81.49
57709;SHT35;42558;52.388;13.390;2022-08-24T02:14:47;17.04;81.03
57709;SHT35;42558;52.388;13.390;2022-08-24T02:17:14;17.04;80.87
57709;SHT35;42558;52.388;13.390;2022-08-24T02:19:41;17.01;80.72
57709;SHT35;42558;52.388;13.390;2022-08-24T02:22:08;17.03;80.96
57709;SHT35;42558;52.388;13.390;2022-08-24T02:24:36;17.03;81.10
57709;SHT35;42558;52.388;13.390;2022-08-24T02:27:03;17.05;80.99
57709;SHT35;42558;52.388;13.390;2022-08-24T02:29:32;17.06;80.54
57709;SHT35;42558;52.388;13.390;2022-08-24T02:31:59;17.00;80.67
57709;SHT35;42558;52.388;13.390;2022-08-24T02:34:26;16.87;81.41
57709;SHT35;42558;52.388;13.390;2022-08-24T02:36:53;16.76;82.43
57709;SHT35;42558;52.388;13.390;2022-08-24T02:39:20;16.78;84.73
57709;SHT35;42558;52.388;13.390;2022-08-24T02:41:47;16.92;87.24
57709;SHT35;42558;52.388;13.390;2022-08-24T02:44:15;17.08;88.94
57709;SHT35;42558;52.388;13.390;2022-08-24T02:46:42;17.14;89.28
57709;SHT35;42558;52.388;13.390;2022-08-24T02:49:08;17.15;89.52
57709;SHT35;42558;52.388;13.390;2022-08-24T02:51:37;17.20;89.97
57709;SHT35;42558;52.388;13.390;2022-08-24T02:54:12;17.24;90.31
57709;SHT35;42558;52.388;13.390;2022-08-24T02:56:45;17.27;90.58
57709;SHT35;42558;52.388;13.390;2022-08-24T02:59:13;17.30;90.78
57709;SHT35;42558;52.388;13.390;2022-08-24T03:01:41;17.31;90.88
57709;SHT35;42558;52.388;13.390;2022-08-24T03:04:10;17.35;90.98
57709;SHT35;42558;52.388;13.390;2022-08-24T03:06:37;17.37;91.10
57709;SHT35;42558;52.388;13.390;2022-08-24T03:09:04;17.39;91.12
57709;SHT35;42558;52.388;13.390;2022-08-24T03:11:32;17.47;91.26
57709;SHT35;42558;52.388;13.390;2022-08-24T03:13:59;17.52;91.28
57709;SHT35;42558;52.388;13.390;2022-08-24T03:16:26;17.56;91.35
57709;SHT35;42558;52.388;13.390;2022-08-24T03:18:55;17.58;91.36
57709;SHT35;42558;52.388;13.390;2022-08-24T03:21:21;17.58;91.34
57709;SHT35;42558;52.388;13.390;2022-08-24T03:23:49;17.60;91.40
57709;SHT35;42558;52.388;13.390;2022-08-24T03:26:15;17.62;91.41
57709;SHT35;42558;52.388;13.390;2022-08-24T03:28:42;17.61;91.39
57709;SHT35;42558;52.388;13.390;2022-08-24T03:31:10;17.69;91.43
57709;SHT35;42558;52.388;13.390;2022-08-24T03:33:38;17.74;91.34
57709;SHT35;42558;52.388;13.390;2022-08-24T03:36:05;17.78;91.30
57709;SHT35;42558;52.388;13.390;2022-08-24T03:38:37;17.82;91.28
57709;SHT35;42558;52.388;13.390;2022-08-24T03:41:04;17.80;91.21
57709;SHT35;42558;52.388;13.390;2022-08-24T03:43:31;17.82;91.21
57709;SHT35;42558;52.388;13.390;2022-08-24T03:46:18;17.82;91.05
57709;SHT35;42558;52.388;13.390;2022-08-24T03:48:50;17.80;90.86
57709;SHT35;42558;52.388;13.390;2022-08-24T03:51:20;17.85;90.66
57709;SHT35;42558;52.388;13.390;2022-08-24T03:53:50;17.90;90.52
57709;SHT35;42558;52.388;13.390;2022-08-24T03:56:19;17.92;90.43
57709;SHT35;42558;52.388;13.390;2022-08-24T03:58:46;17.91;90.25
57709;SHT35;42558;52.388;13.390;2022-08-24T04:01:13;17.91;90.10
57709;SHT35;42558;52.388;13.390;2022-08-24T04:03:44;17.92;90.21
57709;SHT35;42558;52.388;13.390;2022-08-24T04:06:15;17.86;90.20
57709;SHT35;42558;52.388;13.390;2022-08-24T04:08:44;17.84;89.91
57709;SHT35;42558;52.388;13.390;2022-08-24T04:11:18;17.88;89.38
57709;SHT35;42558;52.388;13.390;2022-08-24T04:13:50;17.91;88.82
57709;SHT35;42558;52.388;13.390;2022-08-24T04:16:23;17.92;88.30
57709;SHT35;42558;52.388;13.390;2022-08-24T04:18:52;17.96;88.00
57709;SHT35;42558;52.388;13.390;2022-08-24T04:24:01;17.94;87.57
57709;SHT35;42558;52.388;13.390;2022-08-24T04:26:31;17.99;86.95
57709;SHT35;42558;52.388;13.390;2022-08-24T04:29:11;18.06;86.51
57709;SHT35;42558;52.388;13.390;2022-08-24T04:31:40;18.08;86.53
57709;SHT35;42558;52.388;13.390;2022-08-24T04:34:09;18.07;86.78
57709;SHT35;42558;52.388;13.390;2022-08-24T04:36:39;18.08;87.18
57709;SHT35;42558;52.388;13.390;2022-08-24T04:39:10;18.00;87.95
57709;SHT35;42558;52.388;13.390;2022-08-24T04:41:37;17.94;88.53
57709;SHT35;42558;52.388;13.390;2022-08-24T04:44:04;17.91;88.85
57709;SHT35;42558;52.388;13.390;2022-08-24T04:46:31;17.92;88.73
57709;SHT35;42558;52.388;13.390;2022-08-24T04:48:57;17.98;88.70
57709;SHT35;42558;52.388;13.390;2022-08-24T04:51:24;17.97;88.81
57709;SHT35;42558;52.388;13.390;2022-08-24T04:53:51;17.96;89.05
57709;SHT35;42558;52.388;13.390;2022-08-24T04:56:20;17.96;89.30
57709;SHT35;42558;52.388;13.390;2022-08-24T04:58:50;17.94;89.50
57709;SHT35;42558;52.388;13.390;2022-08-24T05:01:21;17.94;89.67
57709;SHT35;42558;52.388;13.390;2022-08-24T05:03:52;17.92;89.72
57709;SHT35;42558;52.388;13.390;2022-08-24T05:06:23;17.85;89.94
57709;SHT35;42558;52.388;13.390;2022-08-24T05:08:53;17.77;90.33
57709;SHT35;42558;52.388;13.390;2022-08-24T05:11:20;17.81;90.64
57709;SHT35;42558;52.388;13.390;2022-08-24T05:13:50;17.74;90.77
57709;SHT35;42558;52.388;13.390;2022-08-24T05:16:19;17.72;90.99
57709;SHT35;42558;52.388;13.390;2022-08-24T05:18:47;17.87;91.18
57709;SHT35;42558;52.388;13.390;2022-08-24T05:21:16;17.93;91.07
57709;SHT35;42558;52.388;13.390;2022-08-24T05:23:47;17.99;90.86
57709;SHT35;42558;52.388;13.390;2022-08-24T05:26:18;18.09;90.92
57709;SHT35;42558;52.388;13.390;2022-08-24T05:28:55;18.12;90.83
57709;SHT35;42558;52.388;13.390;2022-08-24T05:31:26;18.13;90.82
57709;SHT35;42558;52.388;13.390;2022-08-24T05:33:57;18.17;90.64
57709;SHT35;42558;52.388;13.390;2022-08-24T05:36:27;18.16;90.35
57709;SHT35;42558;52.388;13.390;2022-08-24T05:38:57;18.23;89.92
57709;SHT35;42558;52.388;13.390;2022-08-24T05:41:33;18.29;89.33
57709;SHT35;42558;52.388;13.390;2022-08-24T05:44:00;18.38;89.16
57709;SHT35;42558;52.388;13.390;2022-08-24T05:46:32;18.44;88.94
57709;SHT35;42558;52.388;13.390;2022-08-24T05:48:59;18.45;88.80
57709;SHT35;42558;52.388;13.390;2022-08-24T05:51:27;18.47;88.87
57709;SHT35;42558;52.388;13.390;2022-08-24T05:53:55;18.48;88.91
57709;SHT35;42558;52.388;13.390;2022-08-24T05:56:23;18.51;89.14
57709;SHT35;42558;52.388;13.390;2022-08-24T05:58:56;18.49;89.17
57709;SHT35;42558;52.388;13.390;2022-08-24T06:01:24;18.47;89.28
57709;SHT35;42558;52.388;13.390;2022-08-24T06:03:53;18.48;89.42
57709;SHT35;42558;52.388;13.390;2022-08-24T06:06:21;18.42;89.41
57709;SHT35;42558;52.388;13.390;2022-08-24T06:08:51;18.50;89.75
57709;SHT35;42558;52.388;13.390;2022-08-24T06:11:26;18.61;89.96
57709;SHT35;42558;52.388;13.390;2022-08-24T06:13:59;18.74;89.85
57709;SHT35;42558;52.388;13.390;2022-08-24T06:16:34;18.81;89.42
57709;SHT35;42558;52.388;13.390;2022-08-24T06:19:02;18.87;89.01
57709;SHT35;42558;52.388;13.390;2022-08-24T06:21:31;18.96;88.78
57709;SHT35;42558;52.388;13.390;2022-08-24T06:23:59;19.00;88.62
57709;SHT35;42558;52.388;13.390;2022-08-24T06:26:27;18.95;88.48
57709;SHT35;42558;52.388;13.390;2022-08-24T06:29:16;19.03;88.73
57709;SHT35;42558;52.388;13.390;2022-08-24T06:31:45;19.05;88.68
57709;SHT35;42558;52.388;13.390;2022-08-24T06:34:20;19.14;88.51
57709;SHT35;42558;52.388;13.390;2022-08-24T06:36:48;19.14;88.15
57709;SHT35;42558;52.388;13.390;2022-08-24T06:39:16;19.19;88.14
57709;SHT35;42558;52.388;13.390;2022-08-24T06:41:43;19.24;88.13
57709;SHT35;42558;52.388;13.390;2022-08-24T06:44:10;19.27;88.16
57709;SHT35;42558;52.388;13.390;2022-08-24T06:46:38;19.36;88.07
57709;SHT35;42558;52.388;13.390;2022-08-24T06:49:05;19.46;87.83
57709;SHT35;42558;52.388;13.390;2022-08-24T06:51:31;19.60;87.52
57709;SHT35;42558;52.388;13.390;2022-08-24T06:53:59;19.65;86.84
57709;SHT35;42558;52.388;13.390;2022-08-24T06:56:26;19.67;86.49
57709;SHT35;42558;52.388;13.390;2022-08-24T06:58:53;19.68;86.34
57709;SHT35;42558;52.388;13.390;2022-08-24T07:01:22;19.62;86.41
57709;SHT35;42558;52.388;13.390;2022-08-24T07:03:52;19.68;86.59
57709;SHT35;42558;52.388;13.390;2022-08-24T07:06:20;19.63;86.47
57709;SHT35;42558;52.388;13.390;2022-08-24T07:08:49;19.59;86.41
57709;SHT35;42558;52.388;13.390;2022-08-24T07:11:17;19.68;86.27
57709;SHT35;42558;52.388;13.390;2022-08-24T07:13:45;19.84;86.06
57709;SHT35;42558;52.388;13.390;2022-08-24T07:16:15;19.95;86.04
57709;SHT35;42558;52.388;13.390;2022-08-24T07:18:44;20.00;85.83
57709;SHT35;42558;52.388;13.390;2022-08-24T07:21:16;20.11;85.81
57709;SHT35;42558;52.388;13.390;2022-08-24T07:23:46;20.21;85.32
57709;SHT35;42558;52.388;13.390;2022-08-24T07:26:16;20.17;85.00
57709;SHT35;42558;52.388;13.390;2022-08-24T07:29:10;20.13;84.96
57709;SHT35;42558;52.388;13.390;2022-08-24T07:32:00;20.19;85.30
57709;SHT35;42558;52.388;13.390;2022-08-24T07:34:27;20.31;84.93
57709;SHT35;42558;52.388;13.390;2022-08-24T07:36:54;20.36;84.76
57709;SHT35;42558;52.388;13.390;2022-08-24T07:39:22;20.47;84.52
57709;SHT35;42558;52.388;13.390;2022-08-24T07:41:48;20.64;84.03
57709;SHT35;42558;52.388;13.390;2022-08-24T07:44:36;20.77;83.34
57709;SHT35;42558;52.388;13.390;2022-08-24T07:47:04;20.83;83.03
57709;SHT35;42558;52.388;13.390;2022-08-24T07:49:51;20.86;82.77
57709;SHT35;42558;52.388;13.390;2022-08-24T07:52:18;20.96;82.73
57709;SHT35;42558;52.388;13.390;2022-08-24T07:54:45;20.95;82.01
57709;SHT35;42558;52.388;13.390;2022-08-24T07:57:12;20.99;82.12
57709;SHT35;42558;52.388;13.390;2022-08-24T07:59:39;21.06;82.16
57709;SHT35;42558;52.388;13.390;2022-08-24T08:02:06;21.06;81.95
57709;SHT35;42558;52.388;13.390;2022-08-24T08:04:34;21.01;82.09
57709;SHT35;42558;52.388;13.390;2022-08-24T08:07:00;21.00;81.96
57709;SHT35;42558;52.388;13.390;2022-08-24T08:09:27;21.06;82.20
57709;SHT35;42558;52.388;13.390;2022-08-24T08:11:54;21.13;81.94
57709;SHT35;42558;52.388;13.390;2022-08-24T08:14:21;21.23;81.87
57709;SHT35;42558;52.388;13.390;2022-08-24T08:16:48;21.25;80.92
57709;SHT35;42558;52.388;13.390;2022-08-24T08:19:16;21.30;81.27
57709;SHT35;42558;52.388;13.390;2022-08-24T08:21:44;21.47;81.08
57709;SHT35;42558;52.388;13.390;2022-08-24T08:24:33;21.70;80.04
57709;SHT35;42558;52.388;13.390;2022-08-24T08:27:02;21.75;79.04
57709;SHT35;42558;52.388;13.390;2022-08-24T08:29:30;21.69;77.92
57709;SHT35;42558;52.388;13.390;2022-08-24T08:31:59;21.74;77.83
57709;SHT35;42558;52.388;13.390;2022-08-24T08:34:27;21.65;77.28
57709;SHT35;42558;52.388;13.390;2022-08-24T08:36:57;21.77;78.11
57709;SHT35;42558;52.388;13.390;2022-08-24T08:39:26;22.01;77.04
57709;SHT35;42558;52.388;13.390;2022-08-24T08:45:20;22.18;75.92
57709;SHT35;42558;52.388;13.390;2022-08-24T08:48:16;22.35;75.03
57709;SHT35;42558;52.388;13.390;2022-08-24T08:51:22;22.47;74.03
57709;SHT35;42558;52.388;13.390;2022-08-24T08:54:29;22.67;73.74
57709;SHT35;42558;52.388;13.390;2022-08-24T08:57:29;22.92;72.68
57709;SHT35;42558;52.388;13.390;2022-08-24T09:00:22;22.96;72.41
57709;SHT35;42558;52.388;13.390;2022-08-24T09:05:47;23.13;71.87
57709;SHT35;42558;52.388;13.390;2022-08-24T09:08:57;23.23;71.34
57709;SHT35;42558;52.388;13.390;2022-08-24T09:17:20;23.00;71.73
57709;SHT35;42558;52.388;13.390;2022-08-24T09:23:29;23.14;71.40
57709;SHT35;42558;52.388;13.390;2022-08-24T09:26:22;23.29;70.81
57709;SHT35;42558;52.388;13.390;2022-08-24T09:31:52;23.24;72.02
57709;SHT35;42558;52.388;13.390;2022-08-24T09:37:30;23.48;70.21
57709;SHT35;42558;52.388;13.390;2022-08-24T09:46:48;23.81;69.77
57709;SHT35;42558;52.388;13.390;2022-08-24T10:02:44;24.14;67.80
57709;SHT35;42558;52.388;13.390;2022-08-24T10:06:16;24.07;67.97
57709;SHT35;42558;52.388;13.390;2022-08-24T10:17:35;24.88;66.45
57709;SHT35;42558;52.388;13.390;2022-08-24T10:29:41;25.08;64.64
57709;SHT35;42558;52.388;13.390;2022-08-24T10:41:49;25.71;62.75
57709;SHT35;42558;52.388;13.390;2022-08-24T10:54:07;25.86;62.87
57709;SHT35;42558;52.388;13.390;2022-08-24T10:56:39;25.63;63.23
57709;SHT35;42558;52.388;13.390;2022-08-24T11:02:48;25.01;64.59
57709;SHT35;42558;52.388;13.390;2022-08-24T11:05:16;24.95;64.99
57709;SHT35;42558;52.388;13.390;2022-08-24T11:08:02;25.38;63.65
57709;SHT35;42558;52.388;13.390;2022-08-24T11:10:33;25.88;63.37
57709;SHT35;42558;52.388;13.390;2022-08-24T11:15:47;26.06;61.76
57709;SHT35;42558;52.388;13.390;2022-08-24T11:18:20;25.95;63.39
57709;SHT35;42558;52.388;13.390;2022-08-24T11:20:49;25.74;62.95
57709;SHT35;42558;52.388;13.390;2022-08-24T11:23:21;25.37;63.50
57709;SHT35;42558;52.388;13.390;2022-08-24T11:28:46;25.89;62.98
57709;SHT35;42558;52.388;13.390;2022-08-24T11:31:21;25.92;61.99
57709;SHT35;42558;52.388;13.390;2022-08-24T11:34:03;25.58;61.78
57709;SHT35;42558;52.388;13.390;2022-08-24T11:36:39;25.32;62.24
57709;SHT35;42558;52.388;13.390;2022-08-24T11:39:21;25.48;62.42
57709;SHT35;42558;52.388;13.390;2022-08-24T11:41:56;25.71;62.54
57709;SHT35;42558;52.388;13.390;2022-08-24T11:44:42;25.82;63.33
57709;SHT35;42558;52.388;13.390;2022-08-24T11:47:23;25.55;63.30
57709;SHT35;42558;52.388;13.390;2022-08-24T11:50:06;25.44;64.11
57709;SHT35;42558;52.388;13.390;2022-08-24T11:59:15;25.00;64.56
57709;SHT35;42558;52.388;13.390;2022-08-24T12:02:03;25.06;64.53
57709;SHT35;42558;52.388;13.390;2022-08-24T12:04:45;25.14;63.50
57709;SHT35;42558;52.388;13.390;2022-08-24T12:16:13;25.43;62.63
57709;SHT35;42558;52.388;13.390;2022-08-24T12:18:59;25.85;61.66
57709;SHT35;42558;52.388;13.390;2022-08-24T12:21:38;25.96;61.07
57709;SHT35;42558;52.388;13.390;2022-08-24T12:24:12;25.92;60.92
57709;SHT35;42558;52.388;13.390;2022-08-24T12:26:53;25.86;60.58
57709;SHT35;42558;52.388;13.390;2022-08-24T12:29:34;25.86;60.51
57709;SHT35;42558;52.388;13.390;2022-08-24T12:32:27;25.98;60.23
57709;SHT35;42558;52.388;13.390;2022-08-24T12:41:07;25.70;59.76
57709;SHT35;42558;52.388;13.390;2022-08-24T12:43:58;25.50;59.84
57709;SHT35;42558;52.388;13.390;2022-08-24T12:46:38;25.61;60.57
57709;SHT35;42558;52.388;13.390;2022-08-24T12:49:26;25.85;60.24
57709;SHT35;42558;52.388;13.390;2022-08-24T12:54:51;26.10;58.10
57709;SHT35;42558;52.388;13.390;2022-08-24T13:01:34;26.34;59.01
57709;SHT35;42558;52.388;13.390;2022-08-24T13:15:20;26.19;58.73
57709;SHT35;42558;52.388;13.390;2022-08-24T13:17:55;26.05;59.14
57709;SHT35;42558;52.388;13.390;2022-08-24T13:45:36;26.42;58.48
57709;SHT35;42558;52.388;13.390;2022-08-24T14:12:59;27.16;56.93
57709;SHT35;42558;52.388;13.390;2022-08-24T14:19:19;27.08;55.04
57709;SHT35;42558;52.388;13.390;2022-08-24T14:22:16;27.08;53.96
57709;SHT35;42558;52.388;13.390;2022-08-24T14:27:46;27.62;55.96
57709;SHT35;42558;52.388;13.390;2022-08-24T14:35:31;27.72;51.20
57709;SHT35;42558;52.388;13.390;2022-08-24T14:46:59;27.23;52.26
57709;SHT35;42558;52.388;13.390;2022-08-24T14:55:29;27.18;53.47
57709;SHT35;42558;52.388;13.390;2022-08-24T14:58:10;27.56;55.87
57709;SHT35;42558;52.388;13.390;2022-08-24T15:07:17;28.36;52.38
57709;SHT35;42558;52.388;13.390;2022-08-24T15:10:12;28.60;51.43
57709;SHT35;42558;52.388;13.390;2022-08-24T15:12:44;28.29;50.91
57709;SHT35;42558;52.388;13.390;2022-08-24T15:15:23;28.22;51.84
57709;SHT35;42558;52.388;13.390;2022-08-24T15:18:17;27.71;52.13
57709;SHT35;42558;52.388;13.390;2022-08-24T15:30:01;28.53;51.36
57709;SHT35;42558;52.388;13.390;2022-08-24T15:35:39;28.68;49.90
57709;SHT35;42558;52.388;13.390;2022-08-24T15:43:51;28.79;49.46
57709;SHT35;42558;52.388;13.390;2022-08-24T15:46:35;28.50;49.42
57709;SHT35;42558;52.388;13.390;2022-08-24T15:49:18;28.18;51.12
57709;SHT35;42558;52.388;13.390;2022-08-24T15:52:08;28.48;51.23
57709;SHT35;42558;52.388;13.390;2022-08-24T15:54:55;28.44;51.62
57709;SHT35;42558;52.388;13.390;2022-08-24T15:57:27;28.64;51.17
57709;SHT35;42558;52.388;13.390;2022-08-24T16:11:41;27.85;54.54
57709;SHT35;42558;52.388;13.390;2022-08-24T16:20:06;26.81;56.57
57709;SHT35;42558;52.388;13.390;2022-08-24T16:22:57;26.61;57.36
57709;SHT35;42558;52.388;13.390;2022-08-24T16:25:35;26.57;57.94
57709;SHT35;42558;52.388;13.390;2022-08-24T16:28:10;26.58;57.91
57709;SHT35;42558;52.388;13.390;2022-08-24T16:33:35;26.39;58.40
57709;SHT35;42558;52.388;13.390;2022-08-24T16:36:14;26.38;58.24
57709;SHT35;42558;52.388;13.390;2022-08-24T16:38:45;26.38;58.67
57709;SHT35;42558;52.388;13.390;2022-08-24T16:41:17;26.35;58.53
57709;SHT35;42558;52.388;13.390;2022-08-24T16:43:47;26.34;58.72
57709;SHT35;42558;52.388;13.390;2022-08-24T16:46:22;26.29;58.82
57709;SHT35;42558;52.388;13.390;2022-08-24T16:48:51;26.26;58.74
57709;SHT35;42558;52.388;13.390;2022-08-24T16:51:20;26.23;58.73
57709;SHT35;42558;52.388;13.390;2022-08-24T16:53:50;26.23;59.10
57709;SHT35;42558;52.388;13.390;2022-08-24T16:56:19;26.21;59.43
57709;SHT35;42558;52.388;13.390;2022-08-24T16:58:47;26.15;59.38
57709;SHT35;42558;52.388;13.390;2022-08-24T17:01:14;26.13;59.14
57709;SHT35;42558;52.388;13.390;2022-08-24T17:03:42;26.12;59.77
57709;SHT35;42558;52.388;13.390;2022-08-24T17:06:09;26.09;60.16
57709;SHT35;42558;52.388;13.390;2022-08-24T17:08:41;26.02;60.53
57709;SHT35;42558;52.388;13.390;2022-08-24T17:11:08;25.90;59.92
57709;SHT35;42558;52.388;13.390;2022-08-24T17:13:35;25.84;60.22
57709;SHT35;42558;52.388;13.390;2022-08-24T17:16:18;25.83;60.38
57709;SHT35;42558;52.388;13.390;2022-08-24T17:18:47;25.78;60.49
57709;SHT35;42558;52.388;13.390;2022-08-24T17:21:14;25.79;60.61
57709;SHT35;42558;52.388;13.390;2022-08-24T17:23:41;25.81;61.26
57709;SHT35;42558;52.388;13.390;2022-08-24T17:26:11;25.74;61.47
57709;SHT35;42558;52.388;13.390;2022-08-24T17:28:47;25.68;61.30
57709;SHT35;42558;52.388;13.390;2022-08-24T17:31:18;25.68;60.97
57709;SHT35;42558;52.388;13.390;2022-08-24T17:33:45;25.60;61.73
57709;SHT35;42558;52.388;13.390;2022-08-24T17:36:12;25.53;62.05
57709;SHT35;42558;52.388;13.390;2022-08-24T17:38:42;25.46;61.86
57709;SHT35;42558;52.388;13.390;2022-08-24T17:41:20;25.39;61.97
57709;SHT35;42558;52.388;13.390;2022-08-24T17:43:49;25.34;62.65
57709;SHT35;42558;52.388;13.390;2022-08-24T17:46:17;25.28;62.92
57709;SHT35;42558;52.388;13.390;2022-08-24T17:48:46;25.22;63.01
57709;SHT35;42558;52.388;13.390;2022-08-24T17:51:14;25.12;63.33
57709;SHT35;42558;52.388;13.390;2022-08-24T17:53:41;25.05;63.34
57709;SHT35;42558;52.388;13.390;2022-08-24T17:56:08;25.00;63.73
57709;SHT35;42558;52.388;13.390;2022-08-24T17:58:39;24.96;64.28
57709;SHT35;42558;52.388;13.390;2022-08-24T18:01:26;24.86;64.89
57709;SHT35;42558;52.388;13.390;2022-08-24T18:03:54;24.78;65.29
57709;SHT35;42558;52.388;13.390;2022-08-24T18:06:22;24.73;65.42
57709;SHT35;42558;52.388;13.390;2022-08-24T18:08:53;24.71;65.55
57709;SHT35;42558;52.388;13.390;2022-08-24T18:11:23;24.70;65.69
57709;SHT35;42558;52.388;13.390;2022-08-24T18:13:51;24.61;66.15
57709;SHT35;42558;52.388;13.390;2022-08-24T18:16:21;24.53;66.52
57709;SHT35;42558;52.388;13.390;2022-08-24T18:18:53;24.50;66.90
57709;SHT35;42558;52.388;13.390;2022-08-24T18:21:20;24.42;67.20
57709;SHT35;42558;52.388;13.390;2022-08-24T18:23:48;24.30;67.81
57709;SHT35;42558;52.388;13.390;2022-08-24T18:26:23;24.21;68.07
57709;SHT35;42558;52.388;13.390;2022-08-24T18:28:58;24.14;68.24
57709;SHT35;42558;52.388;13.390;2022-08-24T18:31:32;24.09;68.57
57709;SHT35;42558;52.388;13.390;2022-08-24T18:33:59;23.95;69.64
57709;SHT35;42558;52.388;13.390;2022-08-24T18:36:26;23.73;70.14
57709;SHT35;42558;52.388;13.390;2022-08-24T18:38:53;23.59;70.47
57709;SHT35;42558;52.388;13.390;2022-08-24T18:41:20;23.41;71.06
57709;SHT35;42558;52.388;13.390;2022-08-24T18:43:47;23.29;71.52
57709;SHT35;42558;52.388;13.390;2022-08-24T18:46:14;23.27;71.49
57709;SHT35;42558;52.388;13.390;2022-08-24T18:48:41;23.25;71.81
57709;SHT35;42558;52.388;13.390;2022-08-24T18:51:08;23.22;72.03
57709;SHT35;42558;52.388;13.390;2022-08-24T18:53:38;23.15;72.20
57709;SHT35;42558;52.388;13.390;2022-08-24T18:56:05;23.06;72.52
57709;SHT35;42558;52.388;13.390;2022-08-24T18:58:38;23.05;72.47
57709;SHT35;42558;52.388;13.390;2022-08-24T19:01:05;23.15;71.99
57709;SHT35;42558;52.388;13.390;2022-08-24T19:03:33;23.22;71.68
57709;SHT35;42558;52.388;13.390;2022-08-24T19:06:00;23.28;71.47
57709;SHT35;42558;52.388;13.390;2022-08-24T19:08:27;23.26;71.47
57709;SHT35;42558;52.388;13.390;2022-08-24T19:10:54;23.25;71.45
57709;SHT35;42558;52.388;13.390;2022-08-24T19:13:21;23.22;71.62
57709;SHT35;42558;52.388;13.390;2022-08-24T19:15:49;23.18;71.76
57709;SHT35;42558;52.388;13.390;2022-08-24T19:18:17;23.13;72.11
57709;SHT35;42558;52.388;13.390;2022-08-24T19:20:48;23.11;72.16
57709;SHT35;42558;52.388;13.390;2022-08-24T19:23:19;23.08;72.24
57709;SHT35;42558;52.388;13.390;2022-08-24T19:25:50;23.03;72.48
57709;SHT35;42558;52.388;13.390;2022-08-24T19:28:19;22.95;72.81
57709;SHT35;42558;52.388;13.390;2022-08-24T19:30:48;22.91;72.92
57709;SHT35;42558;52.388;13.390;2022-08-24T19:33:24;22.88;73.05
57709;SHT35;42558;52.388;13.390;2022-08-24T19:35:57;22.87;73.11
57709;SHT35;42558;52.388;13.390;2022-08-24T19:38:25;22.84;73.13
57709;SHT35;42558;52.388;13.390;2022-08-24T19:40:52;22.81;73.25
57709;SHT35;42558;52.388;13.390;2022-08-24T19:43:26;22.76;73.40
57709;SHT35;42558;52.388;13.390;2022-08-24T19:45:56;22.71;73.57
57709;SHT35;42558;52.388;13.390;2022-08-24T19:48:36;22.67;73.76
57709;SHT35;42558;52.388;13.390;2022-08-24T19:51:08;22.63;73.92
57709;SHT35;42558;52.388;13.390;2022-08-24T19:53:38;22.59;74.05
57709;SHT35;42558;52.388;13.390;2022-08-24T19:56:08;22.53;74.18
57709;SHT35;42558;52.388;13.390;2022-08-24T19:58:46;22.51;74.30